sensor_id;sensor_type;location;lat;lon;timestamp;pressure;altitude;pressure_sealevel;temperature;humidity
58367;BME280;57745;42.524;12.052;2023-08-31T00:02:05;96076.50;;;24.74;53.04
58367;BME280;57745;42.524;12.052;2023-08-31T00:04:30;96076.63;;;24.68;53.01
58367;BME280;57745;42.524;12.052;2023-08-31T00:06:56;96070.66;;;24.78;52.89
58367;BME280;57745;42.524;12.052;2023-08-31T00:09:23;96079.94;;;24.80;52.85
58367;BME280;57745;42.524;12.052;2023-08-31T00:11:49;96066.34;;;24.63;53.29
58367;BME280;57745;42.524;12.052;2023-08-31T00:14:15;96078.75;;;24.76;52.95
58367;BME280;57745;42.524;12.052;2023-08-31T00:16:40;96074.88;;;24.65;52.90
58367;BME280;57745;42.524;12.052;2023-08-31T00:19:06;96072.53;;;24.56;53.17
58367;BME280;57745;42.524;12.052;2023-08-31T00:21:31;96070.16;;;24.47;53.53
58367;BME280;57745;42.524;12.052;2023-08-31T00:23:56;96069.44;;;24.60;52.90
58367;BME280;57745;42.524;12.052;2023-08-31T00:26:22;96066.72;;;24.41;53.15
58367;BME280;57745;42.524;12.052;2023-08-31T00:28:47;96068.47;;;24.57;52.83
58367;BME280;57745;42.524;12.052;2023-08-31T00:31:13;96070.75;;;24.40;53.30
58367;BME280;57745;42.524;12.052;2023-08-31T00:33:39;96078.53;;;24.42;53.13
58367;BME280;57745;42.524;12.052;2023-08-31T00:36:04;96070.28;;;24.55;52.80
58367;BME280;57745;42.524;12.052;2023-08-31T00:38:30;96074.81;;;24.71;52.23
58367;BME280;57745;42.524;12.052;2023-08-31T00:40:56;96070.41;;;24.62;52.21
58367;BME280;57745;42.524;12.052;2023-08-31T00:43:21;96070.53;;;24.70;51.96
58367;BME280;57745;42.524;12.052;2023-08-31T00:45:51;96068.06;;;24.66;52.14
58367;BME280;57745;42.524;12.052;2023-08-31T00:48:21;96071.94;;;24.45;52.65
58367;BME280;57745;42.524;12.052;2023-08-31T00:50:48;96070.72;;;24.59;52.45
58367;BME280;57745;42.524;12.052;2023-08-31T00:53:14;96066.94;;;24.43;52.85
58367;BME280;57745;42.524;12.052;2023-08-31T00:55:40;96074.31;;;24.54;52.61
58367;BME280;57745;42.524;12.052;2023-08-31T00:58:07;96077.22;;;24.61;52.15
58367;BME280;57745;42.524;12.052;2023-08-31T01:00:50;96078.25;;;24.45;52.52
58367;BME280;57745;42.524;12.052;2023-08-31T01:06:06;96079.22;;;24.48;52.24
58367;BME280;57745;42.524;12.052;2023-08-31T01:08:50;96072.53;;;24.38;52.43
58367;BME280;57745;42.524;12.052;2023-08-31T01:11:56;96076.81;;;24.39;52.16
58367;BME280;57745;42.524;12.052;2023-08-31T01:14:25;96083.22;;;24.33;52.52
58367;BME280;57745;42.524;12.052;2023-08-31T01:16:53;96079.69;;;24.33;52.37
58367;BME280;57745;42.524;12.052;2023-08-31T01:19:50;96088.66;;;24.39;52.20
58367;BME280;57745;42.524;12.052;2023-08-31T01:24:47;96087.53;;;24.48;52.16
58367;BME280;57745;42.524;12.052;2023-08-31T01:27:13;96087.03;;;24.30;52.76
58367;BME280;57745;42.524;12.052;2023-08-31T01:29:38;96090.97;;;24.54;51.93
58367;BME280;57745;42.524;12.052;2023-08-31T01:32:07;96093.53;;;24.33;52.22
58367;BME280;57745;42.524;12.052;2023-08-31T01:34:33;96099.16;;;24.46;51.78
58367;BME280;57745;42.524;12.052;2023-08-31T01:37:04;96092.94;;;24.40;52.15
58367;BME280;57745;42.524;12.052;2023-08-31T01:39:41;96099.97;;;24.41;51.92
58367;BME280;57745;42.524;12.052;2023-08-31T01:42:13;96093.91;;;24.43;52.13
58367;BME280;57745;42.524;12.052;2023-08-31T01:44:42;96093.81;;;24.48;51.63
58367;BME280;57745;42.524;12.052;2023-08-31T01:47:10;96096.38;;;24.46;51.84
58367;BME280;57745;42.524;12.052;2023-08-31T01:49:39;96088.75;;;24.33;52.16
58367;BME280;57745;42.524;12.052;2023-08-31T01:52:05;96093.81;;;24.48;51.59
58367;BME280;57745;42.524;12.052;2023-08-31T01:54:31;96090.38;;;24.42;51.67
58367;BME280;57745;42.524;12.052;2023-08-31T01:56:57;96099.22;;;24.22;52.26
58367;BME280;57745;42.524;12.052;2023-08-31T01:59:22;96098.19;;;24.25;52.24
58367;BME280;57745;42.524;12.052;2023-08-31T02:01:48;96094.50;;;24.17;52.23
58367;BME280;57745;42.524;12.052;2023-08-31T02:04:13;96103.41;;;24.47;51.53
58367;BME280;57745;42.524;12.052;2023-08-31T02:06:39;96096.38;;;24.46;51.43
58367;BME280;57745;42.524;12.052;2023-08-31T02:09:05;96096.09;;;24.31;52.08
58367;BME280;57745;42.524;12.052;2023-08-31T02:11:31;96104.75;;;24.41;51.75
58367;BME280;57745;42.524;12.052;2023-08-31T02:13:58;96103.25;;;24.40;51.79
58367;BME280;57745;42.524;12.052;2023-08-31T02:16:23;96094.59;;;24.30;51.72
58367;BME280;57745;42.524;12.052;2023-08-31T02:18:49;96100.25;;;24.19;51.74
58367;BME280;57745;42.524;12.052;2023-08-31T02:21:14;96108.81;;;24.40;51.61
58367;BME280;57745;42.524;12.052;2023-08-31T02:23:40;96099.50;;;24.37;51.63
58367;BME280;57745;42.524;12.052;2023-08-31T02:26:05;96096.81;;;24.50;51.25
58367;BME280;57745;42.524;12.052;2023-08-31T02:28:31;96101.69;;;24.44;51.11
58367;BME280;57745;42.524;12.052;2023-08-31T02:31:01;96100.25;;;24.38;51.35
58367;BME280;57745;42.524;12.052;2023-08-31T02:33:27;96109.09;;;24.36;51.21
58367;BME280;57745;42.524;12.052;2023-08-31T02:35:56;96108.81;;;24.40;50.99
58367;BME280;57745;42.524;12.052;2023-08-31T02:38:22;96110.16;;;24.33;51.21
58367;BME280;57745;42.524;12.052;2023-08-31T02:40:48;96105.44;;;24.28;51.50
58367;BME280;57745;42.524;12.052;2023-08-31T02:43:14;96118.91;;;24.18;51.69
58367;BME280;57745;42.524;12.052;2023-08-31T02:45:40;96121.25;;;24.33;51.28
58367;BME280;57745;42.524;12.052;2023-08-31T02:48:09;96117.34;;;24.42;51.10
58367;BME280;57745;42.524;12.052;2023-08-31T02:50:35;96120.94;;;24.37;51.17
58367;BME280;57745;42.524;12.052;2023-08-31T02:53:01;96122.75;;;24.34;51.23
58367;BME280;57745;42.524;12.052;2023-08-31T02:55:26;96115.56;;;24.25;51.37
58367;BME280;57745;42.524;12.052;2023-08-31T02:57:53;96121.25;;;24.33;50.80
58367;BME280;57745;42.524;12.052;2023-08-31T03:00:19;96117.06;;;24.26;51.28
58367;BME280;57745;42.524;12.052;2023-08-31T03:02:50;96117.06;;;24.26;51.20
58367;BME280;57745;42.524;12.052;2023-08-31T03:05:18;96111.34;;;24.38;50.81
58367;BME280;57745;42.524;12.052;2023-08-31T03:07:43;96112.69;;;24.12;51.64
58367;BME280;57745;42.524;12.052;2023-08-31T03:10:09;96119.22;;;24.33;51.00
58367;BME280;57745;42.524;12.052;2023-08-31T03:12:35;96121.53;;;24.11;51.58
58367;BME280;57745;42.524;12.052;2023-08-31T03:15:01;96124.50;;;24.13;51.73
58367;BME280;57745;42.524;12.052;2023-08-31T03:17:26;96117.81;;;24.27;51.31
58367;BME280;57745;42.524;12.052;2023-08-31T03:19:52;96126.63;;;24.07;51.52
58367;BME280;57745;42.524;12.052;2023-08-31T03:22:17;96131.25;;;24.17;51.36
58367;BME280;57745;42.524;12.052;2023-08-31T03:24:43;96134.72;;;24.23;51.24
58367;BME280;57745;42.524;12.052;2023-08-31T03:27:08;96131.66;;;24.27;50.92
58367;BME280;57745;42.524;12.052;2023-08-31T03:29:34;96126.94;;;24.22;51.20
58367;BME280;57745;42.524;12.052;2023-08-31T03:32:00;96130.91;;;24.26;51.18
58367;BME280;57745;42.524;12.052;2023-08-31T03:34:31;96129.00;;;24.16;51.53
58367;BME280;57745;42.524;12.052;2023-08-31T03:36:57;96127.75;;;24.17;51.25
58367;BME280;57745;42.524;12.052;2023-08-31T03:39:24;96128.69;;;24.00;51.38
58367;BME280;57745;42.524;12.052;2023-08-31T03:41:50;96139.34;;;24.15;51.21
58367;BME280;57745;42.524;12.052;2023-08-31T03:44:15;96135.44;;;24.05;51.00
58367;BME280;57745;42.524;12.052;2023-08-31T03:46:41;96144.88;;;24.15;51.13
58367;BME280;57745;42.524;12.052;2023-08-31T03:49:06;96132.81;;;24.13;51.08
58367;BME280;57745;42.524;12.052;2023-08-31T03:51:32;96137.09;;;24.14;50.99
58367;BME280;57745;42.524;12.052;2023-08-31T03:53:57;96140.09;;;24.16;51.10
58367;BME280;57745;42.524;12.052;2023-08-31T03:56:23;96133.66;;;24.08;51.06
58367;BME280;57745;42.524;12.052;2023-08-31T03:58:48;96137.69;;;24.07;51.13
58367;BME280;57745;42.524;12.052;2023-08-31T04:01:14;96132.31;;;24.14;51.00
58367;BME280;57745;42.524;12.052;2023-08-31T04:03:41;96141.38;;;23.96;51.63
58367;BME280;57745;42.524;12.052;2023-08-31T04:06:07;96140.94;;;24.11;50.93
58367;BME280;57745;42.524;12.052;2023-08-31T04:08:32;96146.16;;;24.14;50.86
58367;BME280;57745;42.524;12.052;2023-08-31T04:10:57;96147.13;;;24.17;50.64
58367;BME280;57745;42.524;12.052;2023-08-31T04:13:23;96149.16;;;23.97;51.05
58367;BME280;57745;42.524;12.052;2023-08-31T04:15:48;96146.91;;;24.15;50.52
58367;BME280;57745;42.524;12.052;2023-08-31T04:18:14;96154.59;;;24.03;50.88
58367;BME280;57745;42.524;12.052;2023-08-31T04:20:49;96159.34;;;24.08;50.34
58367;BME280;57745;42.524;12.052;2023-08-31T04:23:16;96158.38;;;24.06;50.46
58367;BME280;57745;42.524;12.052;2023-08-31T04:25:42;96163.75;;;23.98;50.66
58367;BME280;57745;42.524;12.052;2023-08-31T04:28:07;96159.31;;;23.89;50.78
58367;BME280;57745;42.524;12.052;2023-08-31T04:30:33;96164.78;;;23.95;50.84
58367;BME280;57745;42.524;12.052;2023-08-31T04:32:58;96168.75;;;23.99;50.16
58367;BME280;57745;42.524;12.052;2023-08-31T04:35:24;96178.25;;;23.85;50.82
58367;BME280;57745;42.524;12.052;2023-08-31T04:37:49;96191.28;;;23.90;50.67
58367;BME280;57745;42.524;12.052;2023-08-31T04:40:15;96205.75;;;24.02;50.38
58367;BME280;57745;42.524;12.052;2023-08-31T04:42:40;96203.94;;;24.05;50.37
58367;BME280;57745;42.524;12.052;2023-08-31T04:45:06;96209.50;;;23.80;50.74
58367;BME280;57745;42.524;12.052;2023-08-31T04:47:32;96206.59;;;23.73;50.92
58367;BME280;57745;42.524;12.052;2023-08-31T04:49:58;96207.72;;;23.83;50.71
58367;BME280;57745;42.524;12.052;2023-08-31T04:52:24;96206.50;;;23.78;50.79
58367;BME280;57745;42.524;12.052;2023-08-31T04:54:50;96210.63;;;23.72;51.09
58367;BME280;57745;42.524;12.052;2023-08-31T04:57:16;96209.03;;;23.76;50.86
58367;BME280;57745;42.524;12.052;2023-08-31T04:59:41;96205.00;;;23.77;50.76
58367;BME280;57745;42.524;12.052;2023-08-31T05:02:06;96215.22;;;23.88;50.25
58367;BME280;57745;42.524;12.052;2023-08-31T05:04:32;96211.91;;;23.89;50.54
58367;BME280;57745;42.524;12.052;2023-08-31T05:06:57;96212.53;;;24.01;50.22
58367;BME280;57745;42.524;12.052;2023-08-31T05:09:24;96220.22;;;24.14;49.89
58367;BME280;57745;42.524;12.052;2023-08-31T05:11:50;96219.44;;;23.94;50.60
58367;BME280;57745;42.524;12.052;2023-08-31T05:14:15;96225.66;;;23.76;50.88
58367;BME280;57745;42.524;12.052;2023-08-31T05:16:43;96225.38;;;23.80;50.46
58367;BME280;57745;42.524;12.052;2023-08-31T05:19:08;96235.13;;;23.86;50.68
58367;BME280;57745;42.524;12.052;2023-08-31T05:21:34;96239.97;;;23.80;50.79
58367;BME280;57745;42.524;12.052;2023-08-31T05:23:59;96245.38;;;23.67;50.76
58367;BME280;57745;42.524;12.052;2023-08-31T05:26:25;96245.41;;;23.91;50.57
58367;BME280;57745;42.524;12.052;2023-08-31T05:28:50;96250.13;;;23.96;50.57
58367;BME280;57745;42.524;12.052;2023-08-31T05:31:16;96254.44;;;23.92;50.42
58367;BME280;57745;42.524;12.052;2023-08-31T05:33:41;96251.72;;;23.86;50.53
58367;BME280;57745;42.524;12.052;2023-08-31T05:36:06;96261.34;;;23.85;50.55
58367;BME280;57745;42.524;12.052;2023-08-31T05:38:32;96255.25;;;23.87;50.57
58367;BME280;57745;42.524;12.052;2023-08-31T05:41:07;96263.97;;;23.96;50.42
58367;BME280;57745;42.524;12.052;2023-08-31T05:43:34;96261.44;;;23.98;50.27
58367;BME280;57745;42.524;12.052;2023-08-31T05:46:00;96264.19;;;23.98;50.47
58367;BME280;57745;42.524;12.052;2023-08-31T05:48:25;96270.91;;;24.09;50.43
58367;BME280;57745;42.524;12.052;2023-08-31T05:50:51;96267.16;;;24.06;50.41
58367;BME280;57745;42.524;12.052;2023-08-31T05:53:16;96271.06;;;23.92;50.79
58367;BME280;57745;42.524;12.052;2023-08-31T05:55:42;96276.84;;;23.94;50.66
58367;BME280;57745;42.524;12.052;2023-08-31T05:58:07;96272.28;;;23.96;50.68
58367;BME280;57745;42.524;12.052;2023-08-31T06:00:33;96283.66;;;23.93;50.79
58367;BME280;57745;42.524;12.052;2023-08-31T06:02:58;96288.31;;;24.04;50.58
58367;BME280;57745;42.524;12.052;2023-08-31T06:05:23;96287.28;;;24.07;50.61
58367;BME280;57745;42.524;12.052;2023-08-31T06:07:49;96287.19;;;24.18;50.58
58367;BME280;57745;42.524;12.052;2023-08-31T06:10:15;96296.53;;;24.15;50.45
58367;BME280;57745;42.524;12.052;2023-08-31T06:12:40;96300.25;;;24.23;50.37
58367;BME280;57745;42.524;12.052;2023-08-31T06:15:06;96290.69;;;24.18;50.51
58367;BME280;57745;42.524;12.052;2023-08-31T06:17:32;96290.00;;;24.12;50.69
58367;BME280;57745;42.524;12.052;2023-08-31T06:19:57;96290.88;;;24.02;50.52
58367;BME280;57745;42.524;12.052;2023-08-31T06:22:23;96298.50;;;24.20;50.41
58367;BME280;57745;42.524;12.052;2023-08-31T06:24:50;96290.94;;;24.20;50.64
58367;BME280;57745;42.524;12.052;2023-08-31T06:27:15;96299.44;;;24.28;50.27
58367;BME280;57745;42.524;12.052;2023-08-31T06:29:43;96307.00;;;24.27;50.25
58367;BME280;57745;42.524;12.052;2023-08-31T06:32:08;96305.44;;;24.32;50.29
58367;BME280;57745;42.524;12.052;2023-08-31T06:34:33;96315.25;;;24.33;50.09
58367;BME280;57745;42.524;12.052;2023-08-31T06:36:59;96318.91;;;24.17;50.35
58367;BME280;57745;42.524;12.052;2023-08-31T06:39:24;96317.31;;;24.27;49.91
58367;BME280;57745;42.524;12.052;2023-08-31T06:41:50;96317.19;;;24.38;49.59
58367;BME280;57745;42.524;12.052;2023-08-31T06:44:15;96323.81;;;24.35;50.05
58367;BME280;57745;42.524;12.052;2023-08-31T06:46:42;96326.50;;;24.41;49.92
58367;BME280;57745;42.524;12.052;2023-08-31T06:49:07;96326.72;;;24.43;49.92
58367;BME280;57745;42.524;12.052;2023-08-31T06:51:33;96322.69;;;24.19;50.59
58367;BME280;57745;42.524;12.052;2023-08-31T06:53:58;96330.94;;;24.25;50.39
58367;BME280;57745;42.524;12.052;2023-08-31T06:56:32;96318.25;;;24.35;50.33
58367;BME280;57745;42.524;12.052;2023-08-31T06:58:58;96320.31;;;24.53;49.91
58367;BME280;57745;42.524;12.052;2023-08-31T07:01:23;96319.41;;;24.45;50.52
58367;BME280;57745;42.524;12.052;2023-08-31T07:03:49;96318.47;;;24.37;50.64
58367;BME280;57745;42.524;12.052;2023-08-31T07:06:14;96326.66;;;24.48;50.26
58367;BME280;57745;42.524;12.052;2023-08-31T07:08:39;96335.94;;;24.32;50.88
58367;BME280;57745;42.524;12.052;2023-08-31T07:11:06;96327.13;;;24.52;50.54
58367;BME280;57745;42.524;12.052;2023-08-31T07:13:31;96330.19;;;24.49;50.81
58367;BME280;57745;42.524;12.052;2023-08-31T07:15:57;96330.72;;;24.47;50.73
58367;BME280;57745;42.524;12.052;2023-08-31T07:18:22;96333.81;;;24.62;50.50
58367;BME280;57745;42.524;12.052;2023-08-31T07:20:48;96337.31;;;24.63;50.67
58367;BME280;57745;42.524;12.052;2023-08-31T07:23:13;96344.22;;;24.56;50.46
58367;BME280;57745;42.524;12.052;2023-08-31T07:25:39;96345.03;;;24.51;50.79
58367;BME280;57745;42.524;12.052;2023-08-31T07:28:05;96349.31;;;24.52;50.45
58367;BME280;57745;42.524;12.052;2023-08-31T07:30:30;96352.28;;;24.36;51.46
58367;BME280;57745;42.524;12.052;2023-08-31T07:32:56;96355.31;;;24.56;50.89
58367;BME280;57745;42.524;12.052;2023-08-31T07:35:21;96361.75;;;24.64;50.45
58367;BME280;57745;42.524;12.052;2023-08-31T07:37:47;96362.66;;;24.54;51.00
58367;BME280;57745;42.524;12.052;2023-08-31T07:40:12;96364.28;;;24.44;51.31
58367;BME280;57745;42.524;12.052;2023-08-31T07:42:38;96368.56;;;24.45;51.48
58367;BME280;57745;42.524;12.052;2023-08-31T07:45:04;96373.97;;;24.56;51.05
58367;BME280;57745;42.524;12.052;2023-08-31T07:47:31;96374.31;;;24.47;51.46
58367;BME280;57745;42.524;12.052;2023-08-31T07:49:56;96385.09;;;24.26;52.34
58367;BME280;57745;42.524;12.052;2023-08-31T07:52:21;96387.44;;;24.46;51.34
58367;BME280;57745;42.524;12.052;2023-08-31T07:54:48;96392.47;;;24.48;51.78
58367;BME280;57745;42.524;12.052;2023-08-31T07:57:13;96394.06;;;24.62;51.82
58367;BME280;57745;42.524;12.052;2023-08-31T07:59:39;96399.56;;;24.67;51.42
58367;BME280;57745;42.524;12.052;2023-08-31T08:02:06;96392.78;;;24.63;51.71
58367;BME280;57745;42.524;12.052;2023-08-31T08:04:31;96411.03;;;24.77;51.28
58367;BME280;57745;42.524;12.052;2023-08-31T08:06:57;96404.09;;;24.65;51.37
58367;BME280;57745;42.524;12.052;2023-08-31T08:09:23;96398.19;;;24.74;51.08
58367;BME280;57745;42.524;12.052;2023-08-31T08:11:48;96404.50;;;24.75;51.32
58367;BME280;57745;42.524;12.052;2023-08-31T08:14:13;96404.56;;;24.93;51.21
58367;BME280;57745;42.524;12.052;2023-08-31T08:16:41;96407.88;;;24.67;51.90
58367;BME280;57745;42.524;12.052;2023-08-31T08:19:07;96411.56;;;24.76;51.70
58367;BME280;57745;42.524;12.052;2023-08-31T08:21:33;96416.19;;;24.67;51.47
58367;BME280;57745;42.524;12.052;2023-08-31T08:23:59;96413.94;;;24.66;51.56
58367;BME280;57745;42.524;12.052;2023-08-31T08:26:24;96419.81;;;24.81;51.28
58367;BME280;57745;42.524;12.052;2023-08-31T08:28:50;96427.38;;;25.05;51.30
58367;BME280;57745;42.524;12.052;2023-08-31T08:31:15;96431.56;;;24.93;51.24
58367;BME280;57745;42.524;12.052;2023-08-31T08:33:40;96437.34;;;24.95;51.37
58367;BME280;57745;42.524;12.052;2023-08-31T08:36:06;96427.16;;;25.03;51.17
58367;BME280;57745;42.524;12.052;2023-08-31T08:38:31;96431.16;;;25.08;51.32
58367;BME280;57745;42.524;12.052;2023-08-31T08:40:57;96441.25;;;25.05;51.41
58367;BME280;57745;42.524;12.052;2023-08-31T08:43:26;96439.88;;;24.93;51.44
58367;BME280;57745;42.524;12.052;2023-08-31T08:45:53;96444.56;;;25.03;51.17
58367;BME280;57745;42.524;12.052;2023-08-31T08:48:20;96447.19;;;25.15;50.92
58367;BME280;57745;42.524;12.052;2023-08-31T08:50:46;96447.34;;;25.22;50.72
58367;BME280;57745;42.524;12.052;2023-08-31T08:53:11;96447.47;;;25.11;50.74
58367;BME280;57745;42.524;12.052;2023-08-31T08:55:41;96449.72;;;25.13;50.92
58367;BME280;57745;42.524;12.052;2023-08-31T08:58:06;96450.50;;;25.13;50.47
58367;BME280;57745;42.524;12.052;2023-08-31T09:00:32;96459.44;;;25.25;50.46
58367;BME280;57745;42.524;12.052;2023-08-31T09:02:59;96456.38;;;25.28;50.36
58367;BME280;57745;42.524;12.052;2023-08-31T09:05:25;96463.13;;;25.33;50.16
58367;BME280;57745;42.524;12.052;2023-08-31T09:08:01;96462.66;;;25.29;50.89
58367;BME280;57745;42.524;12.052;2023-08-31T09:10:55;96463.28;;;25.40;50.37
58367;BME280;57745;42.524;12.052;2023-08-31T09:13:20;96466.41;;;25.50;49.84
58367;BME280;57745;42.524;12.052;2023-08-31T09:15:47;96464.69;;;25.47;49.76
58367;BME280;57745;42.524;12.052;2023-08-31T09:18:27;96471.97;;;25.31;50.85
58367;BME280;57745;42.524;12.052;2023-08-31T09:20:53;96464.16;;;25.49;49.81
58367;BME280;57745;42.524;12.052;2023-08-31T09:23:19;96472.44;;;25.54;49.17
58367;BME280;57745;42.524;12.052;2023-08-31T09:25:46;96476.25;;;25.51;49.45
58367;BME280;57745;42.524;12.052;2023-08-31T09:28:14;96476.03;;;25.49;49.64
58367;BME280;57745;42.524;12.052;2023-08-31T09:30:40;96478.44;;;25.39;48.65
58367;BME280;57745;42.524;12.052;2023-08-31T09:33:13;96474.59;;;25.42;48.89
58367;BME280;57745;42.524;12.052;2023-08-31T09:35:40;96478.75;;;25.55;49.21
58367;BME280;57745;42.524;12.052;2023-08-31T09:38:08;96478.00;;;25.54;48.91
58367;BME280;57745;42.524;12.052;2023-08-31T09:40:36;96484.81;;;25.72;48.63
58367;BME280;57745;42.524;12.052;2023-08-31T09:43:01;96485.69;;;25.67;49.02
58367;BME280;57745;42.524;12.052;2023-08-31T09:45:32;96477.94;;;25.79;48.17
58367;BME280;57745;42.524;12.052;2023-08-31T09:48:02;96486.25;;;25.79;48.64
58367;BME280;57745;42.524;12.052;2023-08-31T09:50:32;96489.56;;;25.77;47.55
58367;BME280;57745;42.524;12.052;2023-08-31T09:53:03;96492.69;;;25.49;47.61
58367;BME280;57745;42.524;12.052;2023-08-31T09:55:32;96481.28;;;25.53;47.75
58367;BME280;57745;42.524;12.052;2023-08-31T09:57:59;96495.56;;;25.81;47.45
58367;BME280;57745;42.524;12.052;2023-08-31T10:00:26;96483.84;;;25.88;47.32
58367;BME280;57745;42.524;12.052;2023-08-31T10:02:54;96487.84;;;25.74;47.75
58367;BME280;57745;42.524;12.052;2023-08-31T10:05:21;96487.66;;;25.85;47.21
58367;BME280;57745;42.524;12.052;2023-08-31T10:07:48;96498.59;;;25.83;46.71
58367;BME280;57745;42.524;12.052;2023-08-31T10:10:15;96498.88;;;25.80;46.90
58367;BME280;57745;42.524;12.052;2023-08-31T10:12:41;96492.13;;;25.75;46.92
58367;BME280;57745;42.524;12.052;2023-08-31T10:15:08;96503.69;;;25.79;47.10
58367;BME280;57745;42.524;12.052;2023-08-31T10:17:35;96490.19;;;25.70;46.44
58367;BME280;57745;42.524;12.052;2023-08-31T10:20:01;96490.84;;;25.76;46.99
58367;BME280;57745;42.524;12.052;2023-08-31T10:22:28;96491.38;;;25.93;45.78
58367;BME280;57745;42.524;12.052;2023-08-31T10:27:24;96485.56;;;25.91;46.89
58367;BME280;57745;42.524;12.052;2023-08-31T10:29:49;96489.25;;;25.99;46.26
58367;BME280;57745;42.524;12.052;2023-08-31T10:32:18;96480.53;;;26.08;45.52
58367;BME280;57745;42.524;12.052;2023-08-31T10:35:03;96484.25;;;26.11;45.94
58367;BME280;57745;42.524;12.052;2023-08-31T10:37:29;96487.44;;;26.02;45.35
58367;BME280;57745;42.524;12.052;2023-08-31T10:40:07;96479.69;;;26.13;45.87
58367;BME280;57745;42.524;12.052;2023-08-31T10:42:33;96480.31;;;25.88;46.16
58367;BME280;57745;42.524;12.052;2023-08-31T10:45:07;96478.13;;;25.99;45.78
58367;BME280;57745;42.524;12.052;2023-08-31T10:47:42;96478.97;;;25.94;45.80
58367;BME280;57745;42.524;12.052;2023-08-31T10:50:19;96477.84;;;25.84;46.83
58367;BME280;57745;42.524;12.052;2023-08-31T10:52:46;96480.63;;;25.84;46.06
58367;BME280;57745;42.524;12.052;2023-08-31T10:55:11;96492.13;;;25.94;45.95
58367;BME280;57745;42.524;12.052;2023-08-31T10:57:37;96488.34;;;25.72;45.98
58367;BME280;57745;42.524;12.052;2023-08-31T11:00:05;96476.41;;;25.96;45.53
58367;BME280;57745;42.524;12.052;2023-08-31T11:05:01;96482.50;;;25.95;45.42
58367;BME280;57745;42.524;12.052;2023-08-31T11:07:29;96471.84;;;25.80;45.53
58367;BME280;57745;42.524;12.052;2023-08-31T11:10:18;96470.19;;;25.90;45.79
58367;BME280;57745;42.524;12.052;2023-08-31T11:12:52;96474.75;;;26.06;45.19
58367;BME280;57745;42.524;12.052;2023-08-31T11:15:19;96481.59;;;26.05;46.05
58367;BME280;57745;42.524;12.052;2023-08-31T11:17:46;96475.28;;;26.05;45.36
58367;BME280;57745;42.524;12.052;2023-08-31T11:20:17;96468.97;;;25.86;45.43
58367;BME280;57745;42.524;12.052;2023-08-31T11:22:44;96469.31;;;25.82;45.39
58367;BME280;57745;42.524;12.052;2023-08-31T11:25:13;96465.13;;;26.07;45.28
58367;BME280;57745;42.524;12.052;2023-08-31T11:27:39;96466.09;;;26.10;44.72
58367;BME280;57745;42.524;12.052;2023-08-31T11:30:17;96467.53;;;25.98;44.47
58367;BME280;57745;42.524;12.052;2023-08-31T11:32:50;96472.28;;;25.84;44.59
58367;BME280;57745;42.524;12.052;2023-08-31T11:35:16;96466.63;;;26.08;43.61
58367;BME280;57745;42.524;12.052;2023-08-31T11:37:48;96463.84;;;26.08;44.06
58367;BME280;57745;42.524;12.052;2023-08-31T11:40:14;96468.97;;;26.04;44.31
58367;BME280;57745;42.524;12.052;2023-08-31T11:42:40;96464.06;;;26.10;44.58
58367;BME280;57745;42.524;12.052;2023-08-31T11:45:06;96469.72;;;26.05;44.06
58367;BME280;57745;42.524;12.052;2023-08-31T11:47:32;96469.00;;;26.18;43.93
58367;BME280;57745;42.524;12.052;2023-08-31T11:49:59;96463.69;;;26.01;43.74
58367;BME280;57745;42.524;12.052;2023-08-31T11:52:25;96460.66;;;26.18;44.08
58367;BME280;57745;42.524;12.052;2023-08-31T11:54:52;96460.22;;;26.13;44.11
58367;BME280;57745;42.524;12.052;2023-08-31T11:57:19;96455.84;;;26.18;43.70
58367;BME280;57745;42.524;12.052;2023-08-31T11:59:50;96462.47;;;26.15;43.70
58367;BME280;57745;42.524;12.052;2023-08-31T12:02:15;96461.50;;;26.12;43.57
58367;BME280;57745;42.524;12.052;2023-08-31T12:04:42;96458.47;;;26.29;43.78
58367;BME280;57745;42.524;12.052;2023-08-31T12:07:11;96454.47;;;26.25;43.29
58367;BME280;57745;42.524;12.052;2023-08-31T12:09:40;96456.72;;;26.26;43.23
58367;BME280;57745;42.524;12.052;2023-08-31T12:12:07;96453.72;;;26.24;43.21
58367;BME280;57745;42.524;12.052;2023-08-31T12:14:33;96452.63;;;26.33;42.70
58367;BME280;57745;42.524;12.052;2023-08-31T12:17:07;96446.53;;;26.16;42.69
58367;BME280;57745;42.524;12.052;2023-08-31T12:19:35;96456.47;;;26.30;43.15
58367;BME280;57745;42.524;12.052;2023-08-31T12:22:01;96449.84;;;26.46;42.22
58367;BME280;57745;42.524;12.052;2023-08-31T12:24:26;96449.41;;;26.42;42.20
58367;BME280;57745;42.524;12.052;2023-08-31T12:26:52;96449.66;;;26.44;42.50
58367;BME280;57745;42.524;12.052;2023-08-31T12:29:21;96450.91;;;26.30;42.28
58367;BME280;57745;42.524;12.052;2023-08-31T12:31:47;96453.19;;;26.26;41.95
58367;BME280;57745;42.524;12.052;2023-08-31T12:34:12;96455.72;;;26.42;42.07
58367;BME280;57745;42.524;12.052;2023-08-31T12:36:38;96455.81;;;26.37;42.14
58367;BME280;57745;42.524;12.052;2023-08-31T12:39:08;96457.66;;;26.47;42.28
58367;BME280;57745;42.524;12.052;2023-08-31T12:41:38;96458.00;;;26.25;42.84
58367;BME280;57745;42.524;12.052;2023-08-31T12:44:03;96459.47;;;26.32;42.39
58367;BME280;57745;42.524;12.052;2023-08-31T12:46:30;96459.03;;;26.41;41.60
58367;BME280;57745;42.524;12.052;2023-08-31T12:48:56;96458.94;;;26.46;41.58
58367;BME280;57745;42.524;12.052;2023-08-31T12:51:22;96458.41;;;26.48;41.54
58367;BME280;57745;42.524;12.052;2023-08-31T12:53:47;96450.50;;;26.52;41.81
58367;BME280;57745;42.524;12.052;2023-08-31T12:56:13;96453.50;;;26.54;41.62
58367;BME280;57745;42.524;12.052;2023-08-31T12:58:40;96462.88;;;26.38;40.50
58367;BME280;57745;42.524;12.052;2023-08-31T13:01:05;96471.91;;;26.44;41.32